Terminal Aerodrome Forecast
Issued by NWS Billings, MT

Home | Current Version | Previous Version | Text Only | Print | Product List | Glossary Off
Versions: 1 2 3 4 5 6 7 8 9 10 11 12 13 14 15 16 17 18 19 20 21 22 23 24 25 26 27 28 29 30

000
FTUS45 KBYZ 061603 AAA
TAFMLS
TAF AMD
KMLS 061603Z 0616/0712 35015KT P6SM VCSH SCT025 BKN045
     FM061800 34014G22KT P6SM -SHRA SCT025 OVC040
     FM070000 35011KT P6SM OVC050=

USA.gov is the U.S. government's official web portal to all federal, state and local government web resources and services.